createdAt,value
2022-10-07T00:02:07.250Z,71.41
2022-10-07T00:04:37.180Z,71.91
2022-10-07T00:07:06.488Z,71.37
2022-10-07T00:09:35.652Z,71.57
2022-10-07T00:12:06.648Z,71.44
2022-10-07T00:14:36.151Z,71.74
2022-10-07T00:17:05.465Z,71.48
2022-10-07T00:19:34.722Z,71.56
2022-10-07T00:22:04.161Z,71.42
2022-10-07T00:24:33.362Z,71.65
2022-10-07T00:27:02.570Z,72.05
2022-10-07T00:29:33.541Z,72.05
2022-10-07T00:32:02.746Z,71.54
2022-10-07T00:34:31.952Z,71.48
2022-10-07T00:37:01.288Z,71.52
2022-10-07T00:39:30.896Z,71.25
2022-10-07T00:42:00.019Z,71.53
2022-10-07T00:44:42.631Z,70.94
2022-10-07T00:47:18.923Z,70.73
2022-10-07T00:49:53.603Z,71.26
2022-10-07T00:52:27.701Z,71.26
2022-10-07T00:54:59.020Z,71.69
2022-10-07T00:57:32.002Z,71.64
2022-10-07T01:00:06.667Z,71.50
2022-10-07T01:02:37.216Z,71.54
2022-10-07T01:05:09.241Z,71.52
2022-10-07T01:07:39.370Z,71.76
2022-10-07T01:10:11.707Z,71.58
2022-10-07T01:12:58.257Z,71.36
2022-10-07T01:15:36.782Z,71.44
2022-10-07T01:18:16.872Z,71.81
2022-10-07T01:20:48.049Z,71.57
2022-10-07T01:23:47.120Z,71.29
2022-10-07T01:26:49.595Z,71.31
2022-10-07T01:29:24.125Z,70.96
2022-10-07T01:32:00.629Z,71.45
2022-10-07T01:34:30.404Z,71.45
2022-10-07T01:37:02.234Z,71.51
2022-10-07T01:39:38.239Z,71.36
2022-10-07T01:42:09.496Z,71.38
2022-10-07T01:44:39.612Z,71.47
2022-10-07T01:47:08.668Z,71.47
2022-10-07T01:49:38.228Z,71.59
2022-10-07T01:52:24.723Z,71.35
2022-10-07T01:55:17.175Z,71.50
2022-10-07T01:57:56.117Z,71.96
2022-10-07T02:00:25.863Z,71.76
2022-10-07T02:03:08.598Z,72.07
2022-10-07T02:05:51.941Z,71.95
2022-10-07T02:08:32.357Z,72.50
2022-10-07T02:11:13.377Z,73.06
2022-10-07T02:13:58.436Z,73.23
2022-10-07T02:16:35.802Z,73.51
2022-10-07T02:19:09.826Z,73.51
2022-10-07T02:21:41.371Z,73.42
2022-10-07T02:24:13.735Z,73.37
2022-10-07T02:26:46.366Z,73.10
2022-10-07T02:29:21.310Z,73.14
2022-10-07T02:31:53.732Z,73.17
2022-10-07T02:34:24.863Z,73.22
2022-10-07T02:37:00.852Z,73.41
2022-10-07T02:39:31.515Z,72.97
2022-10-07T02:42:06.110Z,73.00
2022-10-07T02:44:44.503Z,73.09
2022-10-07T02:47:20.718Z,73.10
2022-10-07T02:49:53.276Z,73.18
2022-10-07T02:52:24.751Z,73.18
2022-10-07T02:54:59.625Z,73.47
2022-10-07T02:57:35.006Z,73.22
2022-10-07T03:00:10.958Z,73.23
2022-10-07T03:02:53.352Z,73.96
2022-10-07T03:05:26.207Z,74.31
2022-10-07T03:08:02.681Z,74.79
2022-10-07T03:10:33.883Z,74.52
2022-10-07T03:13:04.924Z,74.80
2022-10-07T03:15:42.649Z,75.26
2022-10-07T03:18:28.376Z,75.26
2022-10-07T03:21:35.774Z,75.27
2022-10-07T03:24:06.655Z,75.14
2022-10-07T03:26:44.454Z,75.26
2022-10-07T03:29:16.049Z,75.71
2022-10-07T03:31:47.414Z,75.39
2022-10-07T03:34:16.497Z,75.67
2022-10-07T03:36:48.685Z,75.55
2022-10-07T03:39:18.804Z,75.28
2022-10-07T03:41:49.001Z,75.71
2022-10-07T03:44:19.405Z,75.83
2022-10-07T03:46:52.664Z,75.64
2022-10-07T03:49:24.803Z,76.24
2022-10-07T03:51:54.244Z,76.57
2022-10-07T03:54:23.539Z,77.10
2022-10-07T03:56:53.419Z,76.72
2022-10-07T03:59:23.163Z,77.08
2022-10-07T04:01:54.102Z,76.82
2022-10-07T04:04:25.036Z,76.80
2022-10-07T04:06:54.764Z,76.80
2022-10-07T04:09:23.971Z,76.67
2022-10-07T04:11:53.525Z,76.51
2022-10-07T04:14:22.737Z,76.49
2022-10-07T04:16:53.396Z,76.24
2022-10-07T04:19:24.018Z,76.26
2022-10-07T04:21:53.215Z,76.73
2022-10-07T04:24:22.479Z,76.76
2022-10-07T04:26:52.097Z,76.53
2022-10-07T04:29:22.131Z,76.47
2022-10-07T04:31:53.063Z,76.64
2022-10-07T04:34:22.597Z,76.72
2022-10-07T04:36:53.456Z,76.72
2022-10-07T04:39:33.329Z,76.63
2022-10-07T04:42:33.144Z,76.80
2022-10-07T04:45:02.724Z,76.60
2022-10-07T04:47:35.912Z,76.65
2022-10-07T04:50:07.785Z,76.72
2022-10-07T04:52:40.492Z,76.80
2022-10-07T04:55:11.014Z,76.77
2022-10-07T04:57:41.819Z,76.74
2022-10-07T05:00:13.291Z,76.88
2022-10-07T05:02:46.494Z,76.70
2022-10-07T05:05:15.926Z,77.43
2022-10-07T05:07:45.485Z,76.75
2022-10-07T05:10:15.052Z,76.27
2022-10-07T05:12:44.685Z,76.77
2022-10-07T05:15:14.833Z,76.95
2022-10-07T05:17:46.287Z,77.47
2022-10-07T05:20:16.062Z,76.90
2022-10-07T05:22:45.451Z,76.89
2022-10-07T05:25:14.937Z,77.26
2022-10-07T05:27:44.916Z,77.04
2022-10-07T05:30:15.285Z,76.40
2022-10-07T05:32:46.199Z,76.75
2022-10-07T05:35:15.995Z,76.21
2022-10-07T05:37:50.160Z,76.31
2022-10-07T05:40:21.546Z,76.38
2022-10-07T05:42:52.583Z,76.38
2022-10-07T05:45:23.476Z,76.19
2022-10-07T05:47:54.204Z,76.71
2022-10-07T05:50:23.638Z,76.17
2022-10-07T05:52:52.913Z,76.41
2022-10-07T05:55:22.475Z,76.48
2022-10-07T05:57:51.674Z,76.43
2022-10-07T06:00:21.729Z,76.58
2022-10-07T06:02:55.227Z,77.11
2022-10-07T06:05:25.171Z,77.14
2022-10-07T06:07:54.519Z,76.70
2022-10-07T06:10:41.050Z,76.49
2022-10-07T06:13:11.210Z,76.71
2022-10-07T06:15:43.132Z,76.49
2022-10-07T06:18:14.011Z,76.54
2022-10-07T06:20:53.686Z,76.47
2022-10-07T06:23:24.064Z,76.94
2022-10-07T06:25:57.733Z,76.65
2022-10-07T06:28:33.075Z,76.45
2022-10-07T06:31:05.757Z,76.45
2022-10-07T06:33:39.056Z,76.22
2022-10-07T06:36:11.473Z,75.96
2022-10-07T06:38:46.755Z,76.12
2022-10-07T06:41:16.980Z,76.40
2022-10-07T06:43:47.786Z,75.90
2022-10-07T06:46:19.215Z,76.34
2022-10-07T06:48:52.384Z,76.22
2022-10-07T06:51:23.323Z,76.17
2022-10-07T06:53:57.957Z,76.20
2022-10-07T06:56:29.050Z,75.73
2022-10-07T06:58:59.111Z,75.91
2022-10-07T07:01:36.364Z,76.02
2022-10-07T07:04:07.343Z,75.99
2022-10-07T07:06:38.044Z,76.15
2022-10-07T07:09:10.229Z,76.13
2022-10-07T07:11:45.172Z,75.51
2022-10-07T07:14:21.893Z,75.59
2022-10-07T07:16:57.318Z,75.35
2022-10-07T07:19:29.951Z,74.90
2022-10-07T07:21:59.502Z,75.01
2022-10-07T07:24:30.024Z,74.60
2022-10-07T07:26:59.978Z,74.66
2022-10-07T07:29:32.134Z,74.46
2022-10-07T07:32:04.488Z,74.14
2022-10-07T07:34:38.899Z,73.97
2022-10-07T07:37:10.200Z,74.00
2022-10-07T07:39:44.841Z,74.01
2022-10-07T07:42:17.456Z,73.37
2022-10-07T07:44:46.816Z,73.48
2022-10-07T07:47:18.643Z,72.99
2022-10-07T07:49:51.064Z,72.84
2022-10-07T07:52:29.110Z,72.84
2022-10-07T07:55:00.342Z,72.63
2022-10-07T07:57:30.605Z,71.92
2022-10-07T08:00:05.296Z,71.64
2022-10-07T08:02:43.193Z,71.53
2022-10-07T08:05:23.729Z,71.04
2022-10-07T08:07:55.787Z,71.05
2022-10-07T08:10:27.135Z,70.57
2022-10-07T08:12:57.115Z,70.37
2022-10-07T08:15:26.821Z,70.17
2022-10-07T08:17:56.760Z,70.11
2022-10-07T08:20:27.451Z,69.26
2022-10-07T08:22:59.014Z,69.43
2022-10-07T08:25:29.775Z,69.09
2022-10-07T08:28:01.930Z,69.02
2022-10-07T08:30:31.510Z,68.53
2022-10-07T08:33:01.593Z,67.91
2022-10-07T08:35:32.302Z,67.72
2022-10-07T08:38:01.666Z,67.63
2022-10-07T08:40:30.847Z,67.32
2022-10-07T08:43:00.343Z,67.31
2022-10-07T08:45:32.864Z,66.47
2022-10-07T08:48:05.330Z,67.08
2022-10-07T08:50:42.572Z,66.49
2022-10-07T08:53:21.141Z,65.81
2022-10-07T08:55:53.971Z,65.73
2022-10-07T08:58:41.008Z,65.79
2022-10-07T09:01:22.980Z,65.39
2022-10-07T09:04:00.663Z,64.95
2022-10-07T09:06:35.545Z,64.82
2022-10-07T09:09:12.619Z,64.43
2022-10-07T09:11:44.463Z,63.98
2022-10-07T09:14:25.778Z,63.83
2022-10-07T09:16:57.246Z,63.41
2022-10-07T09:19:33.225Z,62.52
2022-10-07T09:22:10.430Z,62.28
2022-10-07T09:24:39.847Z,62.60
2022-10-07T09:27:16.611Z,62.36
2022-10-07T09:29:47.372Z,61.34
2022-10-07T09:32:19.948Z,61.30
2022-10-07T09:34:49.291Z,61.47
2022-10-07T09:37:23.142Z,60.28
2022-10-07T09:39:54.698Z,60.22
2022-10-07T09:42:36.345Z,59.25
2022-10-07T09:45:20.022Z,59.58
2022-10-07T09:47:53.736Z,59.47
2022-10-07T09:50:34.075Z,58.92
2022-10-07T09:53:05.578Z,59.18
2022-10-07T09:55:41.463Z,58.50
2022-10-07T09:58:21.073Z,58.05
2022-10-07T10:00:52.097Z,57.41
2022-10-07T10:03:21.818Z,56.88
2022-10-07T10:05:57.836Z,56.98
2022-10-07T10:08:31.741Z,56.28
2022-10-07T10:11:02.618Z,56.93
2022-10-07T10:13:36.767Z,56.15
2022-10-07T10:16:08.805Z,56.91
2022-10-07T10:18:40.448Z,56.89
2022-10-07T10:21:20.923Z,56.15
2022-10-07T10:23:53.028Z,55.05
2022-10-07T10:26:55.968Z,54.82
2022-10-07T10:29:38.870Z,54.43
2022-10-07T10:32:32.244Z,54.55
2022-10-07T10:35:09.766Z,53.69
2022-10-07T10:37:58.102Z,53.76
2022-10-07T10:40:36.589Z,53.34
2022-10-07T10:43:20.292Z,52.82
2022-10-07T10:46:01.903Z,50.75
2022-10-07T10:48:38.977Z,50.89
2022-10-07T10:51:24.184Z,50.53
2022-10-07T10:54:06.147Z,50.78
2022-10-07T10:56:44.949Z,51.17
2022-10-07T10:59:31.293Z,50.48
2022-10-07T11:02:19.310Z,49.91
2022-10-07T11:04:54.173Z,48.49
2022-10-07T11:07:29.650Z,45.74
2022-10-07T11:10:03.951Z,47.40
2022-10-07T11:12:39.754Z,46.75
2022-10-07T11:15:19.968Z,47.41
2022-10-07T11:17:52.529Z,46.70
2022-10-07T11:20:28.607Z,47.21
2022-10-07T11:23:01.744Z,46.99
2022-10-07T11:25:35.894Z,46.77
2022-10-07T11:28:17.827Z,46.43
2022-10-07T11:30:57.007Z,46.73
2022-10-07T11:33:33.202Z,45.66
2022-10-07T11:36:10.319Z,45.78
2022-10-07T11:38:41.062Z,45.55
2022-10-07T11:41:16.266Z,44.56
2022-10-07T11:43:49.181Z,45.93
2022-10-07T11:46:23.930Z,44.87
2022-10-07T11:49:01.812Z,45.72
2022-10-07T11:51:36.194Z,45.02
2022-10-07T11:54:09.391Z,43.44
2022-10-07T11:56:45.774Z,45.46
2022-10-07T11:59:43.194Z,45.84
2022-10-07T12:02:41.167Z,44.49
2022-10-07T12:05:49.190Z,44.70
2022-10-07T12:08:33.302Z,44.57
2022-10-07T12:11:44.152Z,45.31
2022-10-07T12:14:33.791Z,45.27
2022-10-07T12:17:30.278Z,42.88
2022-10-07T12:20:45.182Z,42.01
2022-10-07T12:23:40.116Z,43.25
2022-10-07T12:26:52.798Z,44.71
2022-10-07T12:29:41.498Z,44.73
2022-10-07T12:32:46.585Z,44.54
2022-10-07T12:35:57.563Z,45.19
2022-10-07T12:38:31.712Z,45.47
2022-10-07T12:41:24.970Z,45.35
2022-10-07T12:44:04.556Z,44.84
2022-10-07T12:46:39.462Z,45.39
2022-10-07T12:49:19.671Z,45.49
2022-10-07T12:51:48.587Z,44.73
2022-10-07T12:54:21.167Z,44.34
2022-10-07T12:56:51.478Z,44.31
2022-10-07T12:59:50.348Z,44.84
2022-10-07T13:02:46.722Z,45.01
2022-10-07T13:05:54.670Z,45.01
2022-10-07T13:09:08.721Z,45.22
2022-10-07T13:11:56.737Z,45.68
2022-10-07T13:14:28.766Z,45.94
2022-10-07T13:17:05.188Z,46.29
2022-10-07T13:19:42.050Z,45.81
2022-10-07T13:22:15.823Z,46.18
2022-10-07T13:24:51.111Z,46.03
2022-10-07T13:27:24.860Z,46.06
2022-10-07T13:29:55.267Z,46.06
2022-10-07T13:32:28.137Z,45.71
2022-10-07T13:34:58.681Z,46.13
2022-10-07T13:37:31.535Z,45.89
2022-10-07T13:40:21.884Z,45.48
2022-10-07T13:42:56.542Z,45.85
2022-10-07T13:45:26.018Z,45.88
2022-10-07T13:47:55.889Z,45.59
2022-10-07T13:50:28.068Z,45.77
2022-10-07T13:53:01.095Z,45.69
2022-10-07T13:55:32.001Z,45.86
2022-10-07T13:58:04.466Z,45.78
2022-10-07T14:00:36.728Z,46.02
2022-10-07T14:03:15.039Z,45.94
2022-10-07T14:05:51.929Z,45.68
2022-10-07T14:08:24.825Z,45.71
2022-10-07T14:10:58.283Z,45.21
2022-10-07T14:13:29.089Z,45.49
2022-10-07T14:15:59.554Z,44.60
2022-10-07T14:18:31.883Z,44.46
2022-10-07T14:21:12.577Z,44.71
2022-10-07T14:23:43.482Z,44.91
2022-10-07T14:26:14.611Z,44.79
2022-10-07T14:28:58.196Z,44.79
2022-10-07T14:32:16.623Z,44.58
2022-10-07T14:38:49.900Z,45.02
2022-10-07T14:41:23.462Z,45.37
2022-10-07T14:43:53.407Z,45.21
2022-10-07T14:46:24.623Z,45.49
2022-10-07T14:48:55.046Z,45.64
2022-10-07T14:51:28.895Z,45.74
2022-10-07T14:54:02.721Z,45.46
2022-10-07T14:56:36.603Z,45.46
2022-10-07T14:59:07.626Z,45.88
2022-10-07T15:01:36.972Z,46.10
2022-10-07T15:04:06.995Z,46.21
2022-10-07T15:06:36.114Z,46.69
2022-10-07T15:09:05.753Z,46.99
2022-10-07T15:11:36.330Z,47.33
2022-10-07T15:14:05.607Z,47.51
2022-10-07T15:16:35.426Z,47.63
2022-10-07T15:19:04.736Z,48.03
2022-10-07T15:21:34.100Z,48.33
2022-10-07T15:24:03.246Z,48.54
2022-10-07T15:26:32.589Z,48.75
2022-10-07T15:29:03.160Z,48.88
2022-10-07T15:31:32.524Z,49.41
2022-10-07T15:34:01.752Z,49.61
2022-10-07T15:36:32.668Z,49.70
2022-10-07T15:39:02.512Z,50.01
2022-10-07T15:41:34.224Z,50.22
2022-10-07T15:44:07.257Z,50.49
2022-10-07T15:46:36.774Z,50.66
2022-10-07T15:49:07.574Z,50.84
2022-10-07T15:51:36.874Z,51.19
2022-10-07T15:54:07.811Z,51.58
2022-10-07T15:56:37.250Z,51.57
2022-10-07T15:59:08.043Z,51.78
2022-10-07T16:01:37.541Z,52.15
2022-10-07T16:04:07.264Z,52.24
2022-10-07T16:06:37.423Z,52.81
2022-10-07T16:09:06.705Z,52.75
2022-10-07T16:11:36.255Z,53.08
2022-10-07T16:14:07.345Z,53.14
2022-10-07T16:16:36.760Z,53.30
2022-10-07T16:19:05.975Z,53.40
2022-10-07T16:21:37.181Z,53.63
2022-10-07T16:24:09.168Z,53.71
2022-10-07T16:26:38.646Z,54.13
2022-10-07T16:29:34.372Z,54.04
2022-10-07T16:32:04.083Z,54.45
2022-10-07T16:34:33.535Z,54.51
2022-10-07T16:37:02.714Z,54.81
2022-10-07T16:39:31.939Z,54.92
2022-10-07T16:42:01.385Z,55.18
2022-10-07T16:44:32.011Z,55.58
2022-10-07T16:47:01.286Z,55.54
2022-10-07T16:49:31.626Z,55.70
2022-10-07T16:52:00.878Z,55.92
2022-10-07T16:54:35.271Z,56.12
2022-10-07T16:57:04.615Z,56.26
2022-10-07T16:59:35.629Z,56.68
2022-10-07T17:02:06.312Z,56.72
2022-10-07T17:04:35.836Z,56.91
2022-10-07T17:07:06.031Z,57.05
2022-10-07T17:09:35.412Z,57.07
2022-10-07T17:12:06.843Z,57.41
2022-10-07T17:14:38.704Z,57.57
2022-10-07T17:17:08.486Z,57.88
2022-10-07T17:19:38.025Z,57.98
2022-10-07T17:22:07.281Z,58.28
2022-10-07T17:24:36.661Z,58.47
2022-10-07T17:27:08.948Z,58.57
2022-10-07T17:29:39.598Z,58.78
2022-10-07T17:32:09.804Z,58.92
2022-10-07T17:34:44.521Z,59.13
2022-10-07T17:37:17.819Z,59.03
2022-10-07T17:39:47.824Z,59.24
2022-10-07T17:42:18.722Z,59.35
2022-10-07T17:44:49.884Z,59.52
2022-10-07T17:47:19.113Z,59.66
2022-10-07T17:49:48.555Z,59.83
2022-10-07T17:52:18.188Z,60.10
2022-10-07T17:54:49.152Z,60.29
2022-10-07T17:57:18.551Z,60.18
2022-10-07T17:59:51.286Z,60.68
2022-10-07T18:02:21.243Z,60.50
2022-10-07T18:04:51.751Z,60.98
2022-10-07T18:07:21.183Z,61.41
2022-10-07T18:09:51.449Z,60.94
2022-10-07T18:12:37.965Z,61.57
2022-10-07T18:15:22.358Z,62.45
2022-10-07T18:17:53.145Z,62.16
2022-10-07T18:20:25.338Z,62.65
2022-10-07T18:22:57.207Z,62.28
2022-10-07T18:25:27.025Z,62.12
2022-10-07T18:27:56.177Z,62.14
2022-10-07T18:30:27.699Z,62.33
2022-10-07T18:32:57.608Z,62.92
2022-10-07T18:35:28.915Z,63.34
2022-10-07T18:37:59.394Z,63.49
2022-10-07T18:40:28.798Z,63.54
2022-10-07T18:42:57.976Z,63.81
2022-10-07T18:45:28.564Z,64.02
2022-10-07T18:48:05.669Z,64.41
2022-10-07T18:50:34.855Z,64.98
2022-10-07T18:53:04.414Z,64.71
2022-10-07T18:55:33.666Z,64.04
2022-10-07T18:58:02.800Z,64.46
2022-10-07T19:00:33.653Z,64.75
2022-10-07T19:03:02.864Z,64.30
2022-10-07T19:05:33.952Z,64.09
2022-10-07T19:08:03.513Z,64.12
2022-10-07T19:10:32.677Z,64.07
2022-10-07T19:13:20.783Z,64.27
2022-10-07T19:15:51.920Z,63.91
2022-10-07T19:18:20.862Z,64.40
2022-10-07T19:20:59.967Z,64.15
2022-10-07T19:23:29.549Z,64.59
2022-10-07T19:26:01.789Z,64.46
2022-10-07T19:28:31.342Z,64.89
2022-10-07T19:31:13.753Z,64.69
2022-10-07T19:33:43.754Z,65.02
2022-10-07T19:36:13.576Z,64.91
2022-10-07T19:38:44.430Z,65.20
2022-10-07T19:41:16.769Z,65.21
2022-10-07T19:43:46.643Z,65.06
2022-10-07T19:46:18.161Z,65.25
2022-10-07T19:48:47.463Z,65.57
2022-10-07T19:51:19.434Z,65.33
2022-10-07T19:53:48.994Z,65.53
2022-10-07T19:56:20.271Z,65.55
2022-10-07T19:58:51.422Z,65.82
2022-10-07T20:01:24.282Z,66.52
2022-10-07T20:03:59.084Z,66.94
2022-10-07T20:06:29.037Z,67.15
2022-10-07T20:09:00.406Z,67.10
2022-10-07T20:11:29.553Z,67.11
2022-10-07T20:13:58.854Z,67.05
2022-10-07T20:16:31.197Z,67.03
2022-10-07T20:19:05.629Z,67.14
2022-10-07T20:21:37.169Z,67.05
2022-10-07T20:24:07.900Z,66.86
2022-10-07T20:26:39.133Z,66.88
2022-10-07T20:29:10.247Z,66.61
2022-10-07T20:31:42.698Z,66.94
2022-10-07T20:34:15.909Z,66.80
2022-10-07T20:36:45.171Z,66.75
2022-10-07T20:39:38.155Z,67.04
2022-10-07T20:42:22.497Z,66.90
2022-10-07T20:44:52.892Z,67.12
2022-10-07T20:47:25.923Z,67.36
2022-10-07T20:49:56.697Z,67.15
2022-10-07T20:52:27.235Z,66.75
2022-10-07T20:54:56.867Z,67.18
2022-10-07T20:57:28.541Z,67.01
2022-10-07T20:59:57.750Z,67.01
2022-10-07T21:02:29.271Z,67.72
2022-10-07T21:04:59.403Z,67.64
2022-10-07T21:07:28.394Z,67.79
2022-10-07T21:09:58.215Z,67.78
2022-10-07T21:12:27.461Z,67.31
2022-10-07T21:15:00.477Z,67.80
2022-10-07T21:17:31.068Z,67.67
2022-10-07T21:20:00.029Z,68.03
2022-10-07T21:22:29.239Z,68.15
2022-10-07T21:24:58.716Z,67.72
2022-10-07T21:27:27.816Z,67.72
2022-10-07T21:29:56.994Z,67.93
2022-10-07T21:32:26.450Z,67.95
2022-10-07T21:34:56.787Z,68.09
2022-10-07T21:37:26.102Z,68.38
2022-10-07T21:39:56.125Z,68.04
2022-10-07T21:42:25.322Z,68.19
2022-10-07T21:44:55.852Z,68.27
2022-10-07T21:47:24.567Z,68.37
2022-10-07T21:49:56.939Z,68.11
2022-10-07T21:52:26.237Z,68.24
2022-10-07T21:54:55.510Z,68.49
2022-10-07T21:57:24.444Z,68.59
2022-10-07T21:59:53.780Z,68.29
2022-10-07T22:02:22.806Z,68.61
2022-10-07T22:04:52.691Z,68.54
2022-10-07T22:07:40.385Z,68.19
2022-10-07T22:10:10.585Z,68.43
2022-10-07T22:12:40.420Z,68.94
2022-10-07T22:15:10.235Z,68.88
2022-10-07T22:17:39.211Z,68.49
2022-10-07T22:20:09.530Z,68.52
2022-10-07T22:22:41.129Z,68.69
2022-10-07T22:25:10.531Z,68.57
2022-10-07T22:27:39.476Z,68.50
2022-10-07T22:30:10.188Z,68.57
2022-10-07T22:32:39.320Z,68.66
2022-10-07T22:35:26.353Z,68.49
2022-10-07T22:37:57.368Z,68.79
2022-10-07T22:40:26.512Z,68.62
2022-10-07T22:42:55.454Z,68.82
2022-10-07T22:45:24.617Z,68.65
2022-10-07T22:47:53.592Z,68.81
2022-10-07T22:50:22.998Z,68.83
2022-10-07T22:52:52.951Z,68.74
2022-10-07T22:55:23.504Z,69.16
2022-10-07T22:57:53.172Z,69.01
2022-10-07T23:00:22.504Z,68.88
2022-10-07T23:02:54.116Z,69.24
2022-10-07T23:05:23.472Z,69.11
2022-10-07T23:07:52.642Z,68.94
2022-10-07T23:10:23.744Z,69.15
2022-10-07T23:12:52.896Z,68.89
2022-10-07T23:15:21.837Z,69.21
2022-10-07T23:17:50.788Z,69.29
2022-10-07T23:20:20.311Z,69.34
2022-10-07T23:22:49.971Z,69.04
2022-10-07T23:25:18.996Z,69.38
2022-10-07T23:27:49.525Z,69.31
2022-10-07T23:30:18.633Z,69.58
2022-10-07T23:32:47.762Z,69.73
2022-10-07T23:35:17.509Z,69.36
2022-10-07T23:37:46.485Z,69.38
2022-10-07T23:40:15.658Z,69.37
2022-10-07T23:42:45.107Z,69.43
2022-10-07T23:45:15.882Z,69.62
2022-10-07T23:47:45.092Z,69.64
2022-10-07T23:50:14.088Z,69.70
2022-10-07T23:52:43.150Z,69.73
2022-10-07T23:55:12.895Z,69.77
2022-10-07T23:57:41.888Z,70.03
